createdAt,value
2018-11-10T00:00:55.205Z,6.82
2018-11-10T00:02:01.887Z,6.87
2018-11-10T00:03:07.577Z,6.91
2018-11-10T00:04:13.789Z,6.97
2018-11-10T00:05:19.972Z,7.04
2018-11-10T00:06:26.669Z,7.07
2018-11-10T00:07:32.863Z,7.09
2018-11-10T00:08:38.554Z,7.11
2018-11-10T00:09:45.233Z,7.19
2018-11-10T00:10:50.924Z,7.22
2018-11-10T00:11:57.124Z,7.20
2018-11-10T00:13:03.805Z,7.20
2018-11-10T00:14:10.004Z,7.20
2018-11-10T00:15:16.203Z,7.22
2018-11-10T00:16:21.943Z,7.21
2018-11-10T00:17:28.589Z,7.22
2018-11-10T00:18:34.299Z,7.27
2018-11-10T00:19:40.989Z,7.23
2018-11-10T00:20:46.697Z,7.21
2018-11-10T00:21:52.878Z,7.17
2018-11-10T00:22:59.071Z,7.21
2018-11-10T00:24:05.765Z,7.17
2018-11-10T00:25:11.955Z,7.15
2018-11-10T00:26:17.649Z,7.21
2018-11-10T00:27:24.343Z,7.16
2018-11-10T00:28:30.046Z,7.09
2018-11-10T00:29:36.732Z,7.06
2018-11-10T00:30:42.428Z,7.04
2018-11-10T00:31:48.611Z,7.03
2018-11-10T00:32:55.297Z,7.02
2018-11-10T00:34:01.007Z,7.00
2018-11-10T00:35:07.194Z,7.03
2018-11-10T00:36:13.388Z,7.02
2018-11-10T00:37:19.584Z,6.97
2018-11-10T00:38:25.776Z,6.94
2018-11-10T00:39:31.974Z,6.90
2018-11-10T00:40:38.655Z,6.87
2018-11-10T00:41:44.354Z,6.81
2018-11-10T00:42:50.540Z,6.75
2018-11-10T00:43:56.748Z,6.71
2018-11-10T00:45:02.941Z,6.70
2018-11-10T00:46:09.617Z,6.69
2018-11-10T00:47:15.805Z,6.73
2018-11-10T00:48:21.494Z,6.70
2018-11-10T00:49:27.697Z,6.70
2018-11-10T00:50:33.886Z,6.67
2018-11-10T00:51:40.064Z,6.65
2018-11-10T00:52:46.753Z,6.68
2018-11-10T00:53:52.453Z,6.63
2018-11-10T00:54:59.131Z,6.63
2018-11-10T00:56:05.820Z,6.64
2018-11-10T00:57:11.570Z,6.61
2018-11-10T00:58:17.703Z,6.65
2018-11-10T00:59:23.405Z,6.68
2018-11-10T01:00:30.065Z,6.66
2018-11-10T01:01:35.766Z,6.66
2018-11-10T01:02:41.956Z,6.64
2018-11-10T01:03:48.146Z,6.65
2018-11-10T01:04:54.327Z,6.65
2018-11-10T01:06:00.514Z,6.66
2018-11-10T01:07:07.183Z,6.68
2018-11-10T01:08:12.877Z,6.66
2018-11-10T01:09:19.580Z,6.60
2018-11-10T01:10:25.739Z,6.58
2018-11-10T01:11:31.448Z,6.51
2018-11-10T01:12:38.124Z,6.50
2018-11-10T01:13:43.803Z,6.56
2018-11-10T01:14:50.002Z,6.57
2018-11-10T01:15:56.185Z,6.55
2018-11-10T01:17:02.850Z,6.53
2018-11-10T01:18:08.537Z,6.55
2018-11-10T01:19:15.718Z,6.55
2018-11-10T01:20:20.890Z,6.57
2018-11-10T01:21:27.569Z,6.62
2018-11-10T01:22:33.759Z,6.58
2018-11-10T01:23:39.571Z,6.55
2018-11-10T01:24:45.626Z,6.46
2018-11-10T01:25:51.800Z,6.40
2018-11-10T01:26:58.976Z,6.34
2018-11-10T01:28:04.244Z,6.37
2018-11-10T01:29:10.347Z,6.48
2018-11-10T01:30:16.523Z,6.53
2018-11-10T01:31:22.698Z,6.57
2018-11-10T01:32:29.376Z,6.59
2018-11-10T01:33:35.565Z,6.58
2018-11-10T01:34:41.743Z,6.58
2018-11-10T01:35:47.426Z,6.58
2018-11-10T01:36:54.099Z,6.63
2018-11-10T01:37:59.789Z,6.63
2018-11-10T01:39:06.470Z,6.64
2018-11-10T01:40:12.635Z,6.66
2018-11-10T01:41:18.329Z,6.66
2018-11-10T01:42:24.501Z,6.64
2018-11-10T01:43:31.178Z,6.65
2018-11-10T01:44:36.880Z,6.64
2018-11-10T01:45:43.051Z,6.61
2018-11-10T01:46:49.247Z,6.66
2018-11-10T01:47:55.411Z,6.69
2018-11-10T01:49:02.118Z,6.72
2018-11-10T01:50:08.292Z,6.75
2018-11-10T01:51:13.961Z,6.78
2018-11-10T01:52:20.149Z,6.81
2018-11-10T01:53:26.834Z,6.82
2018-11-10T01:54:33.023Z,6.84
2018-11-10T01:55:38.704Z,6.85
2018-11-10T01:56:44.882Z,6.83
2018-11-10T01:57:51.572Z,6.86
2018-11-10T01:58:57.746Z,6.88
2018-11-10T02:00:03.456Z,6.88
2018-11-10T02:01:10.122Z,6.85
2018-11-10T02:02:16.309Z,6.87
2018-11-10T02:03:22.505Z,6.86
2018-11-10T02:04:28.695Z,6.89
2018-11-10T02:05:34.379Z,6.89
2018-11-10T02:06:40.607Z,6.90
2018-11-10T02:07:46.761Z,6.90
2018-11-10T02:08:53.441Z,6.88
2018-11-10T02:09:59.652Z,6.86
2018-11-10T02:11:05.315Z,6.84
2018-11-10T02:12:11.493Z,6.84
2018-11-10T02:13:17.681Z,6.83
2018-11-10T02:14:23.877Z,6.82
2018-11-10T02:15:30.064Z,6.79
2018-11-10T02:16:36.747Z,6.77
2018-11-10T02:17:42.436Z,6.76
2018-11-10T02:18:49.125Z,6.77
2018-11-10T02:19:54.811Z,6.76
2018-11-10T02:21:01.000Z,6.75
2018-11-10T02:22:07.678Z,6.74
2018-11-10T02:23:13.363Z,6.70
2018-11-10T02:24:20.050Z,6.70
2018-11-10T02:25:26.227Z,6.68
2018-11-10T02:26:31.911Z,6.64
2018-11-10T02:27:38.109Z,6.61
2018-11-10T02:28:44.289Z,6.60
2018-11-10T02:29:50.478Z,6.57
2018-11-10T02:30:57.148Z,6.57
2018-11-10T02:32:03.845Z,6.54
2018-11-10T02:33:09.567Z,6.53
2018-11-10T02:34:15.705Z,6.55
2018-11-10T02:35:21.411Z,6.59
2018-11-10T02:36:27.578Z,6.63
2018-11-10T02:37:34.264Z,6.63
2018-11-10T02:38:40.527Z,6.65
2018-11-10T02:39:46.147Z,6.70
2018-11-10T02:40:52.318Z,6.76
2018-11-10T02:41:58.509Z,6.78
2018-11-10T02:43:04.693Z,6.80
2018-11-10T02:44:10.874Z,6.80
2018-11-10T02:45:17.063Z,6.80
2018-11-10T02:46:23.248Z,6.85
2018-11-10T02:47:29.439Z,6.85
2018-11-10T02:48:35.622Z,6.88
2018-11-10T02:49:41.814Z,6.88
2018-11-10T02:50:48.193Z,6.91
2018-11-10T02:51:55.178Z,6.91
2018-11-10T02:53:00.368Z,6.92
2018-11-10T02:54:06.558Z,6.91
2018-11-10T02:55:13.247Z,6.91
2018-11-10T02:56:18.924Z,6.90
2018-11-10T02:57:25.608Z,6.90
2018-11-10T02:58:31.805Z,6.93
2018-11-10T02:59:37.502Z,6.93
2018-11-10T03:00:43.691Z,6.92
2018-11-10T03:01:50.361Z,6.91
2018-11-10T03:02:56.066Z,6.89
2018-11-10T03:04:03.745Z,6.90
2018-11-10T03:05:08.942Z,6.89
2018-11-10T03:06:14.644Z,6.91
2018-11-10T03:07:20.828Z,6.91
2018-11-10T03:08:27.011Z,6.90
2018-11-10T03:09:33.201Z,6.90
2018-11-10T03:10:39.441Z,6.90
2018-11-10T03:11:45.585Z,6.89
2018-11-10T03:12:51.771Z,6.89
2018-11-10T03:13:57.953Z,6.88
2018-11-10T03:15:04.650Z,6.88
2018-11-10T03:16:10.887Z,6.86
2018-11-10T03:17:17.023Z,6.85
2018-11-10T03:18:23.215Z,6.84
2018-11-10T03:19:29.399Z,6.87
2018-11-10T03:20:35.591Z,6.85
2018-11-10T03:21:41.272Z,6.85
2018-11-10T03:22:47.617Z,6.88
2018-11-10T03:23:54.154Z,6.91
2018-11-10T03:24:59.849Z,6.93
2018-11-10T03:26:06.524Z,6.97
2018-11-10T03:27:12.232Z,6.98
2018-11-10T03:28:18.909Z,7.01
2018-11-10T03:29:24.596Z,7.03
2018-11-10T03:30:30.796Z,7.03
2018-11-10T03:31:36.977Z,7.06
2018-11-10T03:32:43.668Z,7.08
2018-11-10T03:33:49.855Z,7.11
2018-11-10T03:34:55.558Z,7.13
2018-11-10T03:36:01.751Z,7.16
2018-11-10T03:37:07.951Z,7.19
2018-11-10T03:38:14.621Z,7.20
2018-11-10T03:39:20.813Z,7.22
2018-11-10T03:40:26.523Z,7.24
2018-11-10T03:41:33.220Z,7.27
2018-11-10T03:42:38.894Z,7.29
2018-11-10T03:43:45.584Z,7.28
2018-11-10T03:44:51.296Z,7.29
2018-11-10T03:45:57.581Z,7.28
2018-11-10T03:47:03.684Z,7.31
2018-11-10T03:48:10.355Z,7.32
2018-11-10T03:49:16.068Z,7.31
2018-11-10T03:50:22.758Z,7.30
2018-11-10T03:51:28.941Z,7.30
2018-11-10T03:52:35.144Z,7.30
2018-11-10T03:53:41.333Z,7.31
2018-11-10T03:54:47.035Z,7.35
2018-11-10T03:55:53.722Z,7.36
2018-11-10T03:56:59.431Z,7.37
2018-11-10T03:58:05.611Z,7.38
2018-11-10T03:59:11.820Z,7.38
2018-11-10T04:00:18.003Z,7.38
2018-11-10T04:01:24.684Z,7.37
2018-11-10T04:02:30.400Z,7.37
2018-11-10T04:03:36.590Z,7.35
2018-11-10T04:04:42.784Z,7.35
2018-11-10T04:05:49.573Z,7.34
2018-11-10T04:06:55.169Z,7.38
2018-11-10T04:08:01.365Z,7.40
2018-11-10T04:09:09.041Z,7.43
2018-11-10T04:10:13.762Z,7.44
2018-11-10T04:11:20.449Z,7.45
2018-11-10T04:12:26.143Z,7.45
2018-11-10T04:13:33.337Z,7.45
2018-11-10T04:14:38.535Z,7.50
2018-11-10T04:15:45.235Z,7.50
2018-11-10T04:16:50.922Z,7.51
2018-11-10T04:17:57.121Z,7.51
2018-11-10T04:19:03.343Z,7.51
2018-11-10T04:20:09.523Z,7.51
2018-11-10T04:21:16.224Z,7.51
2018-11-10T04:22:21.919Z,7.49
2018-11-10T04:23:28.110Z,7.48
2018-11-10T04:24:34.309Z,7.47
2018-11-10T04:25:41.021Z,7.50
2018-11-10T04:26:46.694Z,7.49
2018-11-10T04:27:52.904Z,7.48
2018-11-10T04:28:59.094Z,7.50
2018-11-10T04:30:05.300Z,7.49
2018-11-10T04:31:11.587Z,7.49
2018-11-10T04:32:18.184Z,7.50
2018-11-10T04:33:23.892Z,7.49
2018-11-10T04:34:30.080Z,7.49
2018-11-10T04:35:36.784Z,7.49
2018-11-10T04:36:42.478Z,7.49
2018-11-10T04:37:49.163Z,7.48
2018-11-10T04:38:55.358Z,7.51
2018-11-10T04:40:01.067Z,7.50
2018-11-10T04:41:07.759Z,7.52
2018-11-10T04:42:13.942Z,7.51
2018-11-10T04:43:20.648Z,7.49
2018-11-10T04:44:26.332Z,7.45
2018-11-10T04:45:32.048Z,7.46
2018-11-10T04:46:38.736Z,7.46
2018-11-10T04:47:44.432Z,7.48
2018-11-10T04:48:51.121Z,7.49
2018-11-10T04:49:57.379Z,7.50
2018-11-10T04:51:03.016Z,7.50
2018-11-10T04:52:09.208Z,7.55
2018-11-10T04:53:15.905Z,7.58
2018-11-10T04:54:22.104Z,7.59
2018-11-10T04:55:28.283Z,7.61
2018-11-10T04:56:33.996Z,7.61
2018-11-10T04:57:40.681Z,7.63
2018-11-10T04:58:46.873Z,7.67
2018-11-10T04:59:52.581Z,7.68
2018-11-10T05:00:58.789Z,7.71
2018-11-10T05:02:05.569Z,7.74
2018-11-10T05:03:11.186Z,7.76
2018-11-10T05:04:17.377Z,7.78
2018-11-10T05:05:23.578Z,7.81
2018-11-10T05:06:29.783Z,7.82
2018-11-10T05:07:36.488Z,7.80
2018-11-10T05:08:42.176Z,7.79
2018-11-10T05:09:48.389Z,7.78
2018-11-10T05:10:55.076Z,7.78
2018-11-10T05:12:00.792Z,7.77
2018-11-10T05:13:06.981Z,7.78
2018-11-10T05:14:13.676Z,7.80
2018-11-10T05:15:19.901Z,7.80
2018-11-10T05:16:25.599Z,7.79
2018-11-10T05:17:32.287Z,7.79
2018-11-10T05:18:37.985Z,7.80
2018-11-10T05:19:44.193Z,7.79
2018-11-10T05:20:50.904Z,7.78
2018-11-10T05:21:57.092Z,7.77
2018-11-10T05:23:02.795Z,7.76
2018-11-10T05:24:09.010Z,7.76
2018-11-10T05:25:15.691Z,7.75
2018-11-10T05:26:21.396Z,7.74
2018-11-10T05:27:28.091Z,7.72
2018-11-10T05:28:33.790Z,7.71
2018-11-10T05:29:40.495Z,7.72
2018-11-10T05:30:46.693Z,7.73
2018-11-10T05:31:52.400Z,7.75
2018-11-10T05:32:58.599Z,7.75
2018-11-10T05:34:05.285Z,7.76
2018-11-10T05:35:11.570Z,7.74
2018-11-10T05:36:17.217Z,7.76
2018-11-10T05:37:23.409Z,7.77
2018-11-10T05:38:29.604Z,7.78
2018-11-10T05:39:36.310Z,7.77
2018-11-10T05:40:42.008Z,7.79
2018-11-10T05:41:48.718Z,7.80
2018-11-10T05:42:54.412Z,7.81
2018-11-10T05:44:01.113Z,7.80
2018-11-10T05:45:06.818Z,7.80
2018-11-10T05:46:13.025Z,7.79
2018-11-10T05:47:19.717Z,7.80
2018-11-10T05:48:25.924Z,7.77
2018-11-10T05:49:31.615Z,7.77
2018-11-10T05:50:38.328Z,7.77
2018-11-10T05:51:44.522Z,7.77
2018-11-10T05:52:50.233Z,7.76
2018-11-10T05:53:56.919Z,7.73
2018-11-10T05:55:03.125Z,7.75
2018-11-10T05:56:09.334Z,7.74
2018-11-10T05:57:15.120Z,7.73
2018-11-10T05:58:21.245Z,7.74
2018-11-10T05:59:27.952Z,7.75
2018-11-10T06:00:33.661Z,7.78
2018-11-10T06:01:39.867Z,7.78
2018-11-10T06:02:46.060Z,7.79
2018-11-10T06:03:52.269Z,7.78
2018-11-10T06:04:58.461Z,7.76
2018-11-10T06:06:05.167Z,7.76
2018-11-10T06:07:10.877Z,7.75
2018-11-10T06:08:17.075Z,7.75
2018-11-10T06:09:23.867Z,7.74
2018-11-10T06:10:29.701Z,7.76
2018-11-10T06:11:36.185Z,7.77
2018-11-10T06:12:42.380Z,7.79
2018-11-10T06:13:48.573Z,7.82
2018-11-10T06:14:54.293Z,7.85
2018-11-10T06:16:01.002Z,7.86
2018-11-10T06:17:06.727Z,7.86
2018-11-10T06:18:12.908Z,7.87
2018-11-10T06:19:19.110Z,7.87
2018-11-10T06:20:25.306Z,7.87
2018-11-10T06:21:32.019Z,7.84
2018-11-10T06:22:37.724Z,7.79
2018-11-10T06:23:43.925Z,7.77
2018-11-10T06:24:50.122Z,7.74
2018-11-10T06:25:56.393Z,7.73
2018-11-10T06:27:03.056Z,7.73
2018-11-10T06:28:08.759Z,7.72
2018-11-10T06:29:15.434Z,7.71
2018-11-10T06:30:21.164Z,7.70
2018-11-10T06:31:27.364Z,7.71
2018-11-10T06:32:33.559Z,7.69
2018-11-10T06:33:39.761Z,7.70
2018-11-10T06:34:46.467Z,7.70
2018-11-10T06:35:52.658Z,7.69
2018-11-10T06:36:58.877Z,7.70
2018-11-10T06:38:05.058Z,7.68
2018-11-10T06:39:10.784Z,7.68
2018-11-10T06:40:16.972Z,7.67
2018-11-10T06:41:23.224Z,7.66
2018-11-10T06:42:29.873Z,7.65
2018-11-10T06:43:36.063Z,7.64
2018-11-10T06:44:42.251Z,7.63
2018-11-10T06:45:48.463Z,7.62
2018-11-10T06:46:54.673Z,7.63
2018-11-10T06:48:00.865Z,7.62
2018-11-10T06:49:06.565Z,7.63
2018-11-10T06:50:13.264Z,7.63
2018-11-10T06:51:18.966Z,7.63
2018-11-10T06:52:25.173Z,7.63
2018-11-10T06:53:31.363Z,7.63
2018-11-10T06:54:37.568Z,7.62
2018-11-10T06:55:43.770Z,7.61
2018-11-10T06:56:50.474Z,7.63
2018-11-10T06:57:56.668Z,7.64
2018-11-10T06:59:02.375Z,7.63
2018-11-10T07:00:08.567Z,7.65
2018-11-10T07:01:15.282Z,7.65
2018-11-10T07:02:20.982Z,7.65
2018-11-10T07:03:27.286Z,7.67
2018-11-10T07:04:33.869Z,7.66
2018-11-10T07:05:39.588Z,7.65
2018-11-10T07:06:45.792Z,7.63
2018-11-10T07:07:51.990Z,7.63
2018-11-10T07:08:58.678Z,7.65
2018-11-10T07:10:04.398Z,7.67
2018-11-10T07:11:11.080Z,7.68
2018-11-10T07:12:16.819Z,7.68
2018-11-10T07:13:22.996Z,7.68
2018-11-10T07:14:29.697Z,7.68
2018-11-10T07:15:35.907Z,7.69
2018-11-10T07:16:42.114Z,7.69
2018-11-10T07:17:48.299Z,7.70
2018-11-10T07:18:54.521Z,7.71
2018-11-10T07:20:00.702Z,7.72
2018-11-10T07:21:06.418Z,7.74
2018-11-10T07:22:13.111Z,7.75
2018-11-10T07:23:18.823Z,7.76
2018-11-10T07:24:25.570Z,7.80
2018-11-10T07:25:31.734Z,7.81
2018-11-10T07:26:37.435Z,7.83
2018-11-10T07:27:43.644Z,7.84
2018-11-10T07:28:49.850Z,7.88
2018-11-10T07:29:56.053Z,7.91
2018-11-10T07:31:02.254Z,7.93
2018-11-10T07:32:08.466Z,7.94
2018-11-10T07:33:14.670Z,7.96
2018-11-10T07:34:21.373Z,7.95
2018-11-10T07:35:27.101Z,7.97
2018-11-10T07:36:33.310Z,7.98
2018-11-10T07:37:39.509Z,8.01
2018-11-10T07:38:45.713Z,8.01
2018-11-10T07:39:51.913Z,8.01
2018-11-10T07:40:58.127Z,8.01
2018-11-10T07:42:05.342Z,7.99
2018-11-10T07:43:11.085Z,7.97
2018-11-10T07:44:16.759Z,7.96
2018-11-10T07:45:22.969Z,7.96
2018-11-10T07:46:29.187Z,7.94
2018-11-10T07:47:35.384Z,7.95
2018-11-10T07:48:42.081Z,7.95
2018-11-10T07:49:47.795Z,7.95
2018-11-10T07:50:54.487Z,7.94
2018-11-10T07:52:01.208Z,7.96
2018-11-10T07:53:06.423Z,7.98
2018-11-10T07:54:12.632Z,8.00
2018-11-10T07:55:18.842Z,8.05
2018-11-10T07:56:25.051Z,8.07
2018-11-10T07:57:31.248Z,8.08
2018-11-10T07:58:37.457Z,8.09
2018-11-10T07:59:44.174Z,8.11
2018-11-10T08:00:50.366Z,8.14
2018-11-10T08:01:56.102Z,8.14
2018-11-10T08:03:02.313Z,8.13
2018-11-10T08:04:08.999Z,8.13
2018-11-10T08:05:15.232Z,8.14
2018-11-10T08:06:20.939Z,8.13
2018-11-10T08:07:27.161Z,8.13
2018-11-10T08:08:33.370Z,8.13
2018-11-10T08:09:39.574Z,8.14
2018-11-10T08:10:45.790Z,8.18
2018-11-10T08:11:52.076Z,8.23
2018-11-10T08:12:58.531Z,8.29
2018-11-10T08:14:04.926Z,8.32
2018-11-10T08:15:10.654Z,8.33
2018-11-10T08:16:16.875Z,8.32
2018-11-10T08:17:23.102Z,8.28
2018-11-10T08:18:29.870Z,8.26
2018-11-10T08:19:36.025Z,8.25
2018-11-10T08:20:41.750Z,8.26
2018-11-10T08:21:47.953Z,8.28
2018-11-10T08:22:54.675Z,8.30
2018-11-10T08:24:00.407Z,8.30
2018-11-10T08:25:06.728Z,8.31
2018-11-10T08:26:12.837Z,8.33
2018-11-10T08:27:19.063Z,8.34
2018-11-10T08:28:25.302Z,8.34
2018-11-10T08:29:31.980Z,8.36
2018-11-10T08:30:38.217Z,8.37
2018-11-10T08:31:44.421Z,8.41
2018-11-10T08:32:50.648Z,8.42
2018-11-10T08:33:56.859Z,8.43
2018-11-10T08:35:02.592Z,8.42
2018-11-10T08:36:09.301Z,8.42
2018-11-10T08:37:15.569Z,8.42
2018-11-10T08:38:21.739Z,8.41
2018-11-10T08:39:27.586Z,8.41
2018-11-10T08:40:33.696Z,8.42
2018-11-10T08:41:39.920Z,8.41
2018-11-10T08:42:46.145Z,8.41
2018-11-10T08:43:52.364Z,8.39
2018-11-10T08:44:58.577Z,8.42
2018-11-10T08:46:04.795Z,8.44
2018-11-10T08:47:11.034Z,8.45
2018-11-10T08:48:17.744Z,8.47
2018-11-10T08:49:23.552Z,8.48
2018-11-10T08:50:29.694Z,8.50
2018-11-10T08:51:36.411Z,8.52
2018-11-10T08:52:42.136Z,8.53
2018-11-10T08:53:48.390Z,8.56
2018-11-10T08:54:55.082Z,8.58
2018-11-10T08:56:00.882Z,8.57
2018-11-10T08:57:07.050Z,8.59
2018-11-10T08:58:13.267Z,8.59
2018-11-10T08:59:19.704Z,8.58
2018-11-10T09:00:26.220Z,8.57
2018-11-10T09:01:31.963Z,8.58
2018-11-10T09:02:38.678Z,8.67
2018-11-10T09:03:46.031Z,8.81
2018-11-10T09:04:51.147Z,8.93
2018-11-10T09:05:57.386Z,9.03
2018-11-10T09:07:03.114Z,9.13
2018-11-10T09:08:09.355Z,9.21
2018-11-10T09:09:15.601Z,9.22
2018-11-10T09:10:21.845Z,9.23
2018-11-10T09:11:28.086Z,9.27
2018-11-10T09:12:34.327Z,9.31
2018-11-10T09:13:40.571Z,9.36
2018-11-10T09:14:46.831Z,9.40
2018-11-10T09:15:53.066Z,9.45
2018-11-10T09:16:59.335Z,9.46
2018-11-10T09:18:05.570Z,9.49
2018-11-10T09:19:11.825Z,9.52
2018-11-10T09:20:18.094Z,9.56
2018-11-10T09:21:24.360Z,9.63
2018-11-10T09:22:31.117Z,9.74
2018-11-10T09:23:37.358Z,9.80
2018-11-10T09:24:43.156Z,9.84
2018-11-10T09:25:49.384Z,9.87
2018-11-10T09:26:55.642Z,9.90
2018-11-10T09:28:01.913Z,9.90
2018-11-10T09:29:08.185Z,9.89
2018-11-10T09:30:14.447Z,9.83
2018-11-10T09:31:20.708Z,9.86
2018-11-10T09:32:27.571Z,9.91
2018-11-10T09:33:33.740Z,9.94
2018-11-10T09:34:39.522Z,9.95
2018-11-10T09:35:45.800Z,9.90
2018-11-10T09:36:52.064Z,9.87
2018-11-10T09:37:58.828Z,9.88
2018-11-10T09:39:04.621Z,9.91
2018-11-10T09:40:10.884Z,9.99
2018-11-10T09:41:17.162Z,10.00
2018-11-10T09:42:24.117Z,10.05
2018-11-10T09:43:29.702Z,10.10
2018-11-10T09:44:35.972Z,10.10
2018-11-10T09:45:42.259Z,10.11
2018-11-10T09:46:49.591Z,10.13
2018-11-10T09:47:54.815Z,10.15
2018-11-10T09:49:01.121Z,10.18
2018-11-10T09:50:07.927Z,10.19
2018-11-10T09:51:13.663Z,10.23
2018-11-10T09:52:19.938Z,10.27
2018-11-10T09:53:26.231Z,10.34
2018-11-10T09:54:32.508Z,10.39
2018-11-10T09:55:38.792Z,10.40
2018-11-10T09:56:45.097Z,10.38
2018-11-10T09:57:51.356Z,10.38
2018-11-10T09:58:57.667Z,10.40
2018-11-10T10:00:03.932Z,10.42
2018-11-10T10:01:10.849Z,10.48
2018-11-10T10:02:16.892Z,10.59
2018-11-10T10:03:22.791Z,10.56
2018-11-10T10:04:29.583Z,10.63
2018-11-10T10:05:35.875Z,10.61
2018-11-10T10:06:41.686Z,10.66
2018-11-10T10:07:47.961Z,10.71
2018-11-10T10:08:54.329Z,10.73
2018-11-10T10:10:01.057Z,10.74
2018-11-10T10:11:06.863Z,10.74
2018-11-10T10:12:13.161Z,10.86
2018-11-10T10:13:19.577Z,10.95
2018-11-10T10:14:26.281Z,11.03
2018-11-10T10:15:32.079Z,11.11
2018-11-10T10:16:38.461Z,11.18
2018-11-10T10:17:44.719Z,11.24
2018-11-10T10:18:51.031Z,11.26
2018-11-10T10:19:57.343Z,11.32
2018-11-10T10:21:03.685Z,11.34
2018-11-10T10:22:09.986Z,11.42
2018-11-10T10:23:16.323Z,11.50
2018-11-10T10:24:23.139Z,11.55
2018-11-10T10:25:28.968Z,11.62
2018-11-10T10:26:36.307Z,11.64
2018-11-10T10:27:41.646Z,11.65
2018-11-10T10:28:48.011Z,11.69
2018-11-10T10:29:54.327Z,11.75
2018-11-10T10:31:00.650Z,11.78
2018-11-10T10:32:06.998Z,11.80
2018-11-10T10:33:13.343Z,11.83
2018-11-10T10:34:19.699Z,11.81
2018-11-10T10:35:26.202Z,11.81
2018-11-10T10:36:32.395Z,11.83
2018-11-10T10:37:38.717Z,11.82
2018-11-10T10:38:45.056Z,11.81
2018-11-10T10:39:51.417Z,11.82
2018-11-10T10:40:58.253Z,11.80
2018-11-10T10:42:04.608Z,11.77
2018-11-10T10:43:10.930Z,11.79
2018-11-10T10:44:16.776Z,11.79
2018-11-10T10:45:23.122Z,11.77
2018-11-10T10:46:29.612Z,11.79
2018-11-10T10:47:35.791Z,11.85
2018-11-10T10:48:42.216Z,11.91
2018-11-10T10:49:48.526Z,11.91
2018-11-10T10:50:55.314Z,11.90
2018-11-10T10:52:01.168Z,11.80
2018-11-10T10:53:07.505Z,11.85
2018-11-10T10:54:13.847Z,11.96
2018-11-10T10:55:20.190Z,11.98
2018-11-10T10:56:26.566Z,12.05
2018-11-10T10:57:32.887Z,12.13
2018-11-10T10:58:39.241Z,12.10
2018-11-10T10:59:45.593Z,12.02
2018-11-10T11:00:52.437Z,12.07
2018-11-10T11:01:58.299Z,12.06
2018-11-10T11:03:04.744Z,12.05
2018-11-10T11:04:11.011Z,12.08
2018-11-10T11:05:17.856Z,12.14
2018-11-10T11:06:23.723Z,12.20
2018-11-10T11:07:30.095Z,12.30
2018-11-10T11:08:36.439Z,12.39
2018-11-10T11:09:42.962Z,12.46
2018-11-10T11:10:49.165Z,12.50
2018-11-10T11:11:55.544Z,12.58
2018-11-10T11:13:01.924Z,12.67
2018-11-10T11:14:08.282Z,12.67
2018-11-10T11:15:15.242Z,12.67
2018-11-10T11:16:21.034Z,12.69
2018-11-10T11:17:27.431Z,12.69
2018-11-10T11:18:33.797Z,12.70
2018-11-10T11:19:40.182Z,12.66
2018-11-10T11:20:46.567Z,12.67
2018-11-10T11:21:52.992Z,12.75
2018-11-10T11:22:59.324Z,12.81
2018-11-10T11:24:06.702Z,12.89
2018-11-10T11:25:12.125Z,12.90
2018-11-10T11:26:18.493Z,12.97
2018-11-10T11:27:25.385Z,13.00
2018-11-10T11:28:31.268Z,13.05
2018-11-10T11:29:37.717Z,13.09
2018-11-10T11:30:44.548Z,13.04
2018-11-10T11:31:50.438Z,13.08
2018-11-10T11:32:57.022Z,13.06
2018-11-10T11:34:03.214Z,13.05
2018-11-10T11:35:09.624Z,13.07
2018-11-10T11:36:16.466Z,13.03
2018-11-10T11:37:23.367Z,13.03
2018-11-10T11:38:29.245Z,13.03
2018-11-10T11:39:35.136Z,13.06
2018-11-10T11:40:41.528Z,13.08
2018-11-10T11:41:48.995Z,12.97
2018-11-10T11:42:54.937Z,13.02
2018-11-10T11:44:00.887Z,13.09
2018-11-10T11:45:07.104Z,13.17
2018-11-10T11:46:13.592Z,13.20
2018-11-10T11:47:19.897Z,13.18
2018-11-10T11:48:26.279Z,13.17
2018-11-10T11:49:32.740Z,13.11
2018-11-10T11:50:39.093Z,13.08
2018-11-10T11:51:45.994Z,13.03
2018-11-10T11:52:51.917Z,12.92
2018-11-10T11:53:58.325Z,12.89
2018-11-10T11:55:04.728Z,12.90
2018-11-10T11:56:12.659Z,12.97
2018-11-10T11:57:17.590Z,13.03
2018-11-10T11:58:24.058Z,12.96
2018-11-10T11:59:30.425Z,13.10
2018-11-10T12:00:36.815Z,13.23
2018-11-10T12:01:43.234Z,13.27
2018-11-10T12:02:49.665Z,13.18
2018-11-10T12:03:56.075Z,13.21
2018-11-10T12:05:02.471Z,13.25
2018-11-10T12:06:08.914Z,13.25
2018-11-10T12:07:15.321Z,13.30
2018-11-10T12:08:22.241Z,13.40
2018-11-10T12:09:28.199Z,13.53
2018-11-10T12:10:34.652Z,13.53
2018-11-10T12:11:41.580Z,13.57
2018-11-10T12:12:47.565Z,13.68
2018-11-10T12:15:00.480Z,13.77
2018-11-10T12:16:06.959Z,13.82
2018-11-10T12:17:13.436Z,13.82
2018-11-10T12:18:20.916Z,13.92
2018-11-10T12:19:26.400Z,14.05
2018-11-10T12:20:32.900Z,14.13
2018-11-10T12:21:39.390Z,14.12
2018-11-10T12:22:45.890Z,14.00
2018-11-10T12:23:52.940Z,13.80
2018-11-10T12:24:58.953Z,13.65
2018-11-10T12:26:05.386Z,13.56
2018-11-10T12:27:11.892Z,13.55
2018-11-10T12:28:18.353Z,13.55
2018-11-10T12:29:24.832Z,13.59
2018-11-10T12:30:31.311Z,13.61
2018-11-10T12:31:37.862Z,13.57
2018-11-10T12:32:44.267Z,13.54
2018-11-10T12:33:50.744Z,13.52
2018-11-10T12:34:57.205Z,13.47
2018-11-10T12:36:04.170Z,13.39
2018-11-10T12:37:10.127Z,13.37
2018-11-10T12:38:16.594Z,13.41
2018-11-10T12:39:23.034Z,13.40
2018-11-10T12:40:30.494Z,13.45
2018-11-10T12:41:36.951Z,13.50
2018-11-10T12:42:42.407Z,13.52
2018-11-10T12:43:48.857Z,13.52
2018-11-10T12:44:55.307Z,13.53
2018-11-10T12:46:02.238Z,13.49
2018-11-10T12:47:08.234Z,13.48
2018-11-10T12:48:14.666Z,13.48
2018-11-10T12:49:21.090Z,13.43
2018-11-10T12:50:28.028Z,13.42
2018-11-10T12:51:33.979Z,13.41
2018-11-10T12:52:40.934Z,13.40
2018-11-10T12:53:46.872Z,13.33
2018-11-10T12:54:53.795Z,13.31
2018-11-10T12:55:59.741Z,13.23
2018-11-10T12:57:06.155Z,13.15
2018-11-10T12:58:13.074Z,13.12
2018-11-10T12:59:19.527Z,13.12
2018-11-10T13:00:26.247Z,13.19
2018-11-10T13:01:31.889Z,13.25
2018-11-10T13:02:38.330Z,13.27
2018-11-10T13:03:44.802Z,13.27
2018-11-10T13:04:51.219Z,13.26
2018-11-10T13:05:57.671Z,13.23
2018-11-10T13:07:04.187Z,13.20
2018-11-10T13:08:10.626Z,13.18
2018-11-10T13:09:17.366Z,13.09
2018-11-10T13:10:42.449Z,13.07
2018-11-10T13:11:47.321Z,13.06
2018-11-10T13:12:53.031Z,13.06
2018-11-10T13:13:59.460Z,13.06
2018-11-10T13:15:05.906Z,13.05
2018-11-10T13:16:12.340Z,13.02
2018-11-10T13:17:18.790Z,13.00
2018-11-10T13:18:25.686Z,12.97
2018-11-10T13:19:32.108Z,12.94
2018-11-10T13:20:38.025Z,12.90
2018-11-10T13:21:44.563Z,12.87
2018-11-10T13:22:50.868Z,12.84
2018-11-10T13:23:57.295Z,12.85
2018-11-10T13:25:03.688Z,12.85
2018-11-10T13:26:10.100Z,12.85
2018-11-10T13:27:16.499Z,12.84
2018-11-10T13:28:28.831Z,12.84
2018-11-10T13:29:37.610Z,12.85
2018-11-10T13:30:45.076Z,12.86
2018-11-10T13:31:50.971Z,12.88
2018-11-10T13:32:57.282Z,12.89
2018-11-10T13:34:03.206Z,12.89
2018-11-10T13:35:09.592Z,12.87
2018-11-10T13:36:15.988Z,12.85
2018-11-10T13:37:22.375Z,12.80
2018-11-10T13:38:28.758Z,12.77
2018-11-10T13:39:35.157Z,12.75
2018-11-10T13:40:41.554Z,12.74
2018-11-10T13:41:47.942Z,12.74
2018-11-10T13:42:54.326Z,12.77
2018-11-10T13:44:00.819Z,12.79
2018-11-10T13:45:07.117Z,12.83
2018-11-10T13:46:13.493Z,12.86
2018-11-10T13:47:20.392Z,12.88
2018-11-10T13:48:26.269Z,12.87
2018-11-10T13:49:33.164Z,12.86
2018-11-10T13:50:39.183Z,12.85
2018-11-10T13:51:45.749Z,12.84
2018-11-10T13:52:52.765Z,12.77
2018-11-10T13:53:58.207Z,12.70
2018-11-10T13:55:05.078Z,12.59
2018-11-10T13:56:11.577Z,12.53
2018-11-10T13:57:17.357Z,12.50
2018-11-10T13:58:23.732Z,12.45
2018-11-10T13:59:30.265Z,12.42
2018-11-10T14:00:36.496Z,12.39
2018-11-10T14:01:42.877Z,12.39
2018-11-10T14:02:49.266Z,12.38
2018-11-10T14:03:55.616Z,12.41
2018-11-10T14:05:02.011Z,12.44
2018-11-10T14:06:08.377Z,12.47
2018-11-10T14:07:15.255Z,12.47
2018-11-10T14:08:21.628Z,12.49
2018-11-10T14:09:27.500Z,12.50
2018-11-10T14:10:34.373Z,12.52
2018-11-10T14:11:40.760Z,12.53
2018-11-10T14:12:47.672Z,12.55
2018-11-10T14:13:53.586Z,12.57
2018-11-10T14:14:59.371Z,12.55
2018-11-10T14:16:06.469Z,12.54
2018-11-10T14:17:12.131Z,12.52
2018-11-10T14:18:18.511Z,12.51
2018-11-10T14:19:24.853Z,12.50
2018-11-10T14:20:32.290Z,12.50
2018-11-10T14:21:37.613Z,12.47
2018-11-10T14:22:44.452Z,12.47
2018-11-10T14:23:50.811Z,12.48
2018-11-10T14:24:56.675Z,12.48
2018-11-10T14:26:03.087Z,12.46
2018-11-10T14:27:09.395Z,12.44
2018-11-10T14:28:15.742Z,12.42
2018-11-10T14:29:22.096Z,12.42
2018-11-10T14:30:28.461Z,12.41
2018-11-10T14:31:34.804Z,12.39
2018-11-10T14:32:41.173Z,12.36
2018-11-10T14:33:47.972Z,12.34